createdAt,value
2019-05-03T00:01:45.786Z,53.91
2019-05-03T00:04:16.298Z,53.96
2019-05-03T00:06:45.009Z,54.13
2019-05-03T00:09:16.160Z,54.09
2019-05-03T00:11:45.285Z,54.31
2019-05-03T00:14:14.703Z,54.12
2019-05-03T00:16:45.093Z,54.10
2019-05-03T00:19:13.810Z,54.03
2019-05-03T00:21:42.594Z,54.05
2019-05-03T00:24:11.986Z,54.12
2019-05-03T00:26:42.304Z,53.99
2019-05-03T00:29:12.730Z,53.93
2019-05-03T00:31:42.361Z,54.10
2019-05-03T00:34:15.987Z,54.08
2019-05-03T00:36:46.781Z,54.31
2019-05-03T00:39:17.070Z,54.07
2019-05-03T00:41:46.701Z,54.30
2019-05-03T00:44:17.993Z,54.55
2019-05-03T00:46:46.703Z,54.58
2019-05-03T00:49:15.827Z,54.30
2019-05-03T00:51:45.584Z,54.59
2019-05-03T00:54:14.304Z,54.63
2019-05-03T00:56:44.532Z,54.93
2019-05-03T00:59:14.192Z,55.05
2019-05-03T01:01:42.901Z,54.92
2019-05-03T01:04:11.935Z,54.86
2019-05-03T01:06:42.378Z,54.81
2019-05-03T01:09:14.051Z,54.64
2019-05-03T01:11:42.767Z,54.78
2019-05-03T01:14:12.806Z,54.79
2019-05-03T01:16:42.755Z,54.96
2019-05-03T01:19:12.088Z,55.00
2019-05-03T01:21:42.260Z,55.20
2019-05-03T01:24:12.317Z,55.10
2019-05-03T01:26:42.046Z,55.12
2019-05-03T01:29:12.233Z,54.99
2019-05-03T01:31:42.160Z,54.80
2019-05-03T01:34:12.510Z,55.01
2019-05-03T01:36:42.795Z,55.05
2019-05-03T01:39:12.739Z,54.92
2019-05-03T01:41:41.814Z,54.69
2019-05-03T01:44:12.504Z,54.73
2019-05-03T01:46:42.188Z,54.99
2019-05-03T01:49:12.768Z,54.83
2019-05-03T01:51:44.731Z,54.84
2019-05-03T01:54:13.453Z,54.98
2019-05-03T01:56:55.317Z,55.16
2019-05-03T01:59:13.542Z,54.93
2019-05-03T02:02:02.331Z,55.05
2019-05-03T02:04:39.489Z,54.94
2019-05-03T02:07:08.197Z,54.82
2019-05-03T02:09:36.912Z,55.03
2019-05-03T02:12:06.538Z,55.39
2019-05-03T02:14:35.415Z,55.54
2019-05-03T02:17:05.049Z,55.60
2019-05-03T02:19:34.256Z,55.69
2019-05-03T02:22:03.004Z,55.48
2019-05-03T02:24:32.730Z,55.43
2019-05-03T02:27:02.259Z,55.50
2019-05-03T02:29:32.582Z,55.73
2019-05-03T02:32:05.422Z,55.90
2019-05-03T02:34:35.062Z,55.89
2019-05-03T02:37:03.773Z,55.85
2019-05-03T02:39:33.610Z,56.13
2019-05-03T02:42:07.876Z,56.31
2019-05-03T02:44:35.557Z,56.26
2019-05-03T02:47:22.697Z,56.37
2019-05-03T02:49:56.296Z,56.40
2019-05-03T02:52:36.943Z,56.46
2019-05-03T02:55:08.213Z,56.42
2019-05-03T02:57:36.916Z,56.30
2019-05-03T03:00:11.673Z,56.34
2019-05-03T03:02:41.173Z,56.47
2019-05-03T03:05:10.620Z,56.44
2019-05-03T03:07:40.770Z,56.69
2019-05-03T03:10:10.606Z,56.72
2019-05-03T03:12:46.229Z,56.85
2019-05-03T03:15:12.933Z,56.77
2019-05-03T03:17:45.739Z,57.22
2019-05-03T03:20:16.133Z,57.02
2019-05-03T03:22:47.336Z,57.23
2019-05-03T03:25:17.888Z,57.04
2019-05-03T03:27:48.349Z,57.33
2019-05-03T03:30:40.509Z,57.50
2019-05-03T03:33:17.169Z,57.50
2019-05-03T03:35:48.926Z,57.42
2019-05-03T03:38:15.731Z,57.73
2019-05-03T03:40:46.294Z,57.65
2019-05-03T03:43:17.982Z,57.81
2019-05-03T03:45:48.090Z,57.77
2019-05-03T03:48:20.282Z,57.67
2019-05-03T03:50:51.771Z,57.68
2019-05-03T03:53:23.188Z,57.81
2019-05-03T03:55:56.362Z,57.87
2019-05-03T03:58:27.057Z,57.82
2019-05-03T04:00:56.075Z,57.71
2019-05-03T04:03:26.005Z,57.73
2019-05-03T04:05:55.850Z,57.79
2019-05-03T04:08:25.242Z,57.94
2019-05-03T04:10:55.839Z,58.04
2019-05-03T04:13:26.977Z,57.89
2019-05-03T04:16:17.040Z,57.85
2019-05-03T04:18:48.368Z,57.77
2019-05-03T04:21:17.445Z,57.91
2019-05-03T04:23:46.383Z,58.06
2019-05-03T04:26:16.409Z,58.17
2019-05-03T04:28:45.495Z,58.34
2019-05-03T04:31:15.356Z,58.43
2019-05-03T04:33:45.084Z,58.44
2019-05-03T04:36:15.898Z,58.46
2019-05-03T04:38:45.345Z,58.42
2019-05-03T04:41:16.025Z,58.26
2019-05-03T04:43:46.010Z,58.45
2019-05-03T04:46:19.598Z,58.49
2019-05-03T04:48:48.314Z,58.47
2019-05-03T04:51:16.955Z,58.36
2019-05-03T04:53:47.493Z,58.36
2019-05-03T04:56:17.045Z,58.13
2019-05-03T04:58:46.069Z,58.08
2019-05-03T05:01:15.826Z,58.13
2019-05-03T05:03:45.700Z,58.21
2019-05-03T05:06:15.425Z,58.12
2019-05-03T05:08:46.040Z,57.95
2019-05-03T05:11:15.768Z,58.02
2019-05-03T05:13:45.742Z,58.20
2019-05-03T05:16:16.050Z,57.85
2019-05-03T05:18:46.466Z,57.86
2019-05-03T05:21:25.728Z,57.60
2019-05-03T05:24:02.268Z,57.58
2019-05-03T05:26:35.209Z,57.62
2019-05-03T05:29:07.811Z,57.56
2019-05-03T05:31:36.868Z,57.39
2019-05-03T05:34:08.833Z,57.10
2019-05-03T05:36:37.154Z,56.97
2019-05-03T05:39:08.671Z,57.02
2019-05-03T05:41:38.059Z,56.66
2019-05-03T05:44:06.909Z,56.55
2019-05-03T05:46:37.201Z,56.32
2019-05-03T05:49:08.927Z,55.99
2019-05-03T05:51:39.093Z,55.82
2019-05-03T05:54:07.929Z,55.43
2019-05-03T05:56:50.219Z,54.91
2019-05-03T05:59:36.632Z,54.49
2019-05-03T06:02:07.369Z,53.74
2019-05-03T06:04:36.322Z,53.10
2019-05-03T06:07:06.613Z,52.55
2019-05-03T06:09:39.970Z,52.11
2019-05-03T06:12:10.297Z,51.72
2019-05-03T06:14:45.939Z,51.43
2019-05-03T06:17:16.261Z,51.39
2019-05-03T06:19:49.348Z,51.46
2019-05-03T06:22:20.242Z,51.43
2019-05-03T06:24:54.369Z,51.74
2019-05-03T06:27:26.170Z,52.03
2019-05-03T06:29:56.912Z,52.09
2019-05-03T06:32:27.209Z,52.15
2019-05-03T06:34:57.750Z,52.40
2019-05-03T06:37:37.522Z,52.29
2019-05-03T06:40:07.708Z,52.28
2019-05-03T06:42:36.688Z,52.38
2019-05-03T06:45:10.193Z,52.28
2019-05-03T06:47:40.364Z,52.46
2019-05-03T06:50:10.427Z,52.50
2019-05-03T06:52:39.210Z,52.20
2019-05-03T06:55:10.610Z,51.88
2019-05-03T06:57:45.529Z,51.44
2019-05-03T07:00:16.392Z,50.75
2019-05-03T07:02:46.744Z,49.19
2019-05-03T07:05:24.995Z,46.95
2019-05-03T07:07:55.234Z,46.06
2019-05-03T07:10:25.528Z,45.44
2019-05-03T07:13:04.967Z,45.80
2019-05-03T07:15:35.187Z,46.80
2019-05-03T07:18:05.758Z,47.92
2019-05-03T07:20:45.938Z,48.71
2019-05-03T07:23:15.652Z,49.19
2019-05-03T07:25:44.852Z,49.35
2019-05-03T07:28:15.680Z,48.88
2019-05-03T07:30:45.344Z,48.93
2019-05-03T07:33:18.677Z,47.89
2019-05-03T07:35:47.565Z,47.97
2019-05-03T07:38:16.214Z,47.71
2019-05-03T07:40:44.938Z,48.05
2019-05-03T07:43:15.032Z,48.47
2019-05-03T07:45:44.764Z,48.91
2019-05-03T07:48:15.028Z,49.16
2019-05-03T07:50:44.803Z,49.12
2019-05-03T07:53:15.002Z,49.12
2019-05-03T07:55:52.249Z,48.47
2019-05-03T07:58:22.529Z,48.88
2019-05-03T08:01:05.799Z,49.05
2019-05-03T08:03:24.432Z,49.50
2019-05-03T08:05:55.205Z,49.54
2019-05-03T08:08:25.048Z,49.27
2019-05-03T08:10:55.099Z,49.09
2019-05-03T08:13:25.269Z,48.73
2019-05-03T08:15:55.726Z,47.46
2019-05-03T08:18:25.638Z,46.25
2019-05-03T08:20:55.646Z,45.90
2019-05-03T08:23:29.940Z,45.61
2019-05-03T08:25:56.589Z,45.15
2019-05-03T08:28:25.570Z,44.53
2019-05-03T08:30:58.414Z,44.16
2019-05-03T08:33:28.824Z,44.51
2019-05-03T08:35:57.537Z,45.18
2019-05-03T08:38:26.255Z,45.34
2019-05-03T08:40:56.978Z,44.96
2019-05-03T08:43:25.666Z,44.00
2019-05-03T08:45:55.381Z,43.32
2019-05-03T08:48:25.125Z,41.79
2019-05-03T08:50:55.452Z,39.51
2019-05-03T08:53:25.627Z,39.17
2019-05-03T08:55:55.641Z,40.25
2019-05-03T08:58:25.816Z,41.02
2019-05-03T09:00:55.336Z,41.22
2019-05-03T09:03:25.083Z,38.98
2019-05-03T09:05:56.484Z,36.67
2019-05-03T09:08:24.954Z,34.82
2019-05-03T09:10:59.064Z,33.59
2019-05-03T09:13:29.360Z,33.02
2019-05-03T09:15:59.330Z,31.39
2019-05-03T09:18:28.315Z,31.19
2019-05-03T09:20:57.033Z,31.09
2019-05-03T09:23:26.136Z,30.26
2019-05-03T09:25:56.233Z,29.47
2019-05-03T09:28:28.817Z,29.45
2019-05-03T09:30:55.856Z,29.03
2019-05-03T09:33:25.009Z,30.39
2019-05-03T09:35:55.026Z,31.58
2019-05-03T09:38:25.666Z,31.57
2019-05-03T09:40:54.653Z,31.69
2019-05-03T09:43:25.043Z,30.06
2019-05-03T09:45:54.858Z,31.03
2019-05-03T09:48:25.496Z,31.13
2019-05-03T09:50:55.585Z,32.04
2019-05-03T09:53:26.429Z,33.14
2019-05-03T09:55:55.720Z,34.51
2019-05-03T09:58:26.369Z,35.03
2019-05-03T10:00:55.585Z,36.18
2019-05-03T10:03:24.954Z,35.71
2019-05-03T10:05:55.375Z,34.53
2019-05-03T10:08:25.430Z,35.63
2019-05-03T10:11:15.518Z,35.95
2019-05-03T10:13:47.376Z,35.80
2019-05-03T10:16:15.593Z,35.62
2019-05-03T10:18:45.957Z,36.23
2019-05-03T10:21:15.227Z,36.76
2019-05-03T10:23:45.160Z,37.62
2019-05-03T10:26:15.298Z,38.79
2019-05-03T10:28:44.690Z,38.55
2019-05-03T10:31:14.648Z,38.99
2019-05-03T10:33:54.841Z,39.93
2019-05-03T10:36:24.981Z,40.25
2019-05-03T10:38:55.382Z,40.78
2019-05-03T10:41:25.686Z,41.06
2019-05-03T10:43:56.373Z,40.60
2019-05-03T10:46:25.227Z,40.38
2019-05-03T10:48:55.806Z,40.81
2019-05-03T10:51:26.420Z,41.25
2019-05-03T10:53:56.958Z,41.47
2019-05-03T10:56:37.547Z,40.97
2019-05-03T10:59:10.742Z,41.23
2019-05-03T11:01:45.274Z,41.33
2019-05-03T11:04:14.739Z,40.34
2019-05-03T11:06:45.712Z,40.07
2019-05-03T11:09:15.256Z,40.33
2019-05-03T11:11:45.316Z,39.44
2019-05-03T11:14:14.981Z,39.50
2019-05-03T11:16:46.315Z,39.03
2019-05-03T11:19:15.468Z,39.22
2019-05-03T11:21:45.474Z,38.83
2019-05-03T11:24:14.871Z,38.89
2019-05-03T11:26:45.658Z,38.38
2019-05-03T11:29:17.679Z,38.07
2019-05-03T11:32:00.217Z,36.14
2019-05-03T11:34:37.483Z,35.81
2019-05-03T11:37:07.774Z,36.30
2019-05-03T11:39:36.812Z,36.11
2019-05-03T11:42:06.207Z,35.33
2019-05-03T11:44:38.565Z,35.89
2019-05-03T11:47:09.511Z,35.74
2019-05-03T11:49:39.436Z,35.33
2019-05-03T11:52:08.462Z,35.38
2019-05-03T11:54:37.364Z,35.31
2019-05-03T11:57:26.417Z,35.43
2019-05-03T11:59:55.493Z,34.71
2019-05-03T12:02:28.962Z,35.29
2019-05-03T12:04:59.829Z,35.93
2019-05-03T12:07:39.586Z,35.72
2019-05-03T12:10:17.127Z,35.25
2019-05-03T12:12:55.407Z,35.88
2019-05-03T12:15:24.626Z,36.80
2019-05-03T12:17:59.231Z,37.27
2019-05-03T12:20:30.688Z,37.34
2019-05-03T12:23:00.022Z,36.65
2019-05-03T12:25:29.907Z,36.90
2019-05-03T12:27:59.414Z,37.27
2019-05-03T12:30:28.126Z,38.64
2019-05-03T12:32:57.057Z,39.76
2019-05-03T12:35:26.134Z,40.56
2019-05-03T12:37:55.535Z,40.97
2019-05-03T12:40:25.480Z,41.26
2019-05-03T12:42:55.417Z,41.34
2019-05-03T12:45:25.103Z,41.55
2019-05-03T12:47:55.928Z,41.44
2019-05-03T12:50:25.564Z,41.66
2019-05-03T12:52:55.444Z,41.83
2019-05-03T12:55:24.936Z,41.61
2019-05-03T12:57:55.748Z,41.53
2019-05-03T13:00:29.822Z,40.88
2019-05-03T13:03:09.457Z,40.86
2019-05-03T13:05:38.166Z,39.88
2019-05-03T13:08:32.430Z,40.07
2019-05-03T13:11:01.470Z,40.23
2019-05-03T13:13:30.561Z,39.89
2019-05-03T13:15:59.406Z,40.73
2019-05-03T13:18:28.356Z,41.61
2019-05-03T13:20:57.091Z,41.71
2019-05-03T13:23:26.079Z,42.95
2019-05-03T13:25:54.851Z,43.95
2019-05-03T13:28:25.454Z,44.67
2019-05-03T13:30:54.669Z,44.94
2019-05-03T13:33:23.547Z,44.18
2019-05-03T13:35:52.238Z,44.30
2019-05-03T13:38:21.171Z,44.30
2019-05-03T13:40:49.898Z,44.59
2019-05-03T13:43:18.539Z,44.48
2019-05-03T13:45:47.910Z,45.08
2019-05-03T13:48:20.872Z,45.44
2019-05-03T13:50:46.930Z,45.24
2019-05-03T13:53:16.136Z,44.11
2019-05-03T13:55:45.206Z,43.84
2019-05-03T13:58:14.818Z,43.16
2019-05-03T14:00:45.367Z,43.62
2019-05-03T14:03:15.237Z,43.76
2019-05-03T14:05:44.675Z,41.81
2019-05-03T14:08:15.689Z,42.14
2019-05-03T14:10:45.512Z,42.74
2019-05-03T14:13:14.554Z,42.77
2019-05-03T14:15:45.313Z,43.04
2019-05-03T14:18:15.308Z,43.25
2019-05-03T14:20:59.601Z,43.42
2019-05-03T14:23:28.679Z,43.34
2019-05-03T14:25:57.560Z,43.33
2019-05-03T14:28:26.269Z,43.06
2019-05-03T14:30:55.049Z,41.43
2019-05-03T14:33:24.840Z,41.06
2019-05-03T14:35:54.854Z,41.25
2019-05-03T14:38:25.455Z,40.87
2019-05-03T14:40:55.038Z,40.91
2019-05-03T14:43:24.882Z,40.38
2019-05-03T14:45:55.005Z,40.27
2019-05-03T14:48:25.417Z,39.06
2019-05-03T14:50:57.267Z,38.70
2019-05-03T14:53:25.530Z,38.23
2019-05-03T14:55:56.123Z,37.93
2019-05-03T14:58:38.741Z,37.45
2019-05-03T15:01:09.328Z,36.75
2019-05-03T15:03:38.049Z,36.72
2019-05-03T15:06:06.941Z,37.17
2019-05-03T15:08:35.584Z,37.46
2019-05-03T15:11:05.317Z,36.94
2019-05-03T15:13:34.973Z,37.21
2019-05-03T15:16:05.266Z,37.10
2019-05-03T15:18:34.815Z,36.77
2019-05-03T15:21:05.493Z,37.42
2019-05-03T15:23:34.809Z,37.72
2019-05-03T15:26:05.150Z,37.71
2019-05-03T15:28:35.568Z,36.67
2019-05-03T15:31:05.020Z,36.53
2019-05-03T15:33:35.320Z,36.87
2019-05-03T15:36:04.896Z,37.27
2019-05-03T15:38:34.583Z,37.16
2019-05-03T15:41:05.440Z,36.28
2019-05-03T15:43:45.459Z,36.30
2019-05-03T15:46:31.075Z,36.55
2019-05-03T15:49:01.880Z,36.23
2019-05-03T15:51:30.603Z,36.60
2019-05-03T15:53:59.717Z,36.73
2019-05-03T15:56:28.476Z,36.02
2019-05-03T15:58:57.119Z,36.48
2019-05-03T16:01:25.914Z,37.16
2019-05-03T16:03:55.647Z,37.39
2019-05-03T16:06:24.963Z,37.43
2019-05-03T16:08:55.270Z,37.04
2019-05-03T16:11:25.366Z,37.19
2019-05-03T16:13:55.373Z,37.46
2019-05-03T16:16:24.836Z,37.97
2019-05-03T16:18:54.099Z,38.04
2019-05-03T16:21:25.040Z,38.09
2019-05-03T16:23:55.499Z,38.37
2019-05-03T16:26:25.162Z,38.09
2019-05-03T16:28:55.735Z,38.43
2019-05-03T16:31:26.600Z,38.17
2019-05-03T16:33:55.712Z,38.31
2019-05-03T16:36:24.528Z,38.95
2019-05-03T16:38:55.284Z,38.43
2019-05-03T16:41:24.872Z,38.63
2019-05-03T16:43:54.295Z,37.83
2019-05-03T16:46:23.005Z,37.76
2019-05-03T16:48:51.818Z,38.53
2019-05-03T16:51:21.777Z,39.05
2019-05-03T16:53:50.872Z,38.82
2019-05-03T16:56:20.620Z,37.83
2019-05-03T16:58:49.553Z,38.34
2019-05-03T17:01:18.354Z,38.35
2019-05-03T17:03:50.116Z,38.63
2019-05-03T17:06:34.857Z,38.73
2019-05-03T17:09:15.474Z,39.00
2019-05-03T17:11:46.157Z,39.25
2019-05-03T17:14:15.513Z,38.88
2019-05-03T17:16:45.445Z,38.78
2019-05-03T17:19:14.750Z,39.03
2019-05-03T17:21:45.301Z,38.82
2019-05-03T17:24:15.494Z,39.37
2019-05-03T17:26:45.003Z,39.69
2019-05-03T17:29:13.729Z,39.90
2019-05-03T17:31:44.487Z,39.95
2019-05-03T17:34:14.493Z,39.49
2019-05-03T17:36:44.966Z,38.58
2019-05-03T17:39:32.349Z,39.06
2019-05-03T17:44:54.561Z,40.13
2019-05-03T17:47:25.501Z,40.36
2019-05-03T17:49:54.631Z,40.53
2019-05-03T17:52:41.992Z,40.33
2019-05-03T17:55:24.460Z,40.46
2019-05-03T17:58:04.485Z,40.58
2019-05-03T18:00:52.900Z,40.46
2019-05-03T18:03:23.401Z,40.73
2019-05-03T18:05:53.681Z,41.04
2019-05-03T18:08:25.008Z,41.38
2019-05-03T18:10:55.898Z,41.35
2019-05-03T18:13:24.821Z,41.38
2019-05-03T18:15:54.358Z,41.54
2019-05-03T18:18:24.705Z,42.19
2019-05-03T18:20:55.491Z,42.42
2019-05-03T18:23:24.686Z,43.14
2019-05-03T18:25:54.885Z,43.30
2019-05-03T18:28:25.000Z,43.54
2019-05-03T18:30:54.724Z,43.21
2019-05-03T18:33:24.698Z,43.51
2019-05-03T18:35:55.048Z,43.19
2019-05-03T18:38:25.390Z,43.12
2019-05-03T18:40:55.593Z,43.03
2019-05-03T18:43:26.614Z,43.30
2019-05-03T18:46:06.357Z,43.72
2019-05-03T18:48:35.001Z,43.49
2019-05-03T18:51:05.327Z,44.14
2019-05-03T18:53:34.585Z,44.78
2019-05-03T18:56:04.603Z,43.96
2019-05-03T18:58:33.510Z,44.45
2019-05-03T19:01:03.057Z,45.12
2019-05-03T19:03:31.857Z,45.42
2019-05-03T19:06:09.043Z,45.42
2019-05-03T19:08:42.143Z,45.14
2019-05-03T19:11:15.022Z,45.40
2019-05-03T19:13:47.868Z,46.26
2019-05-03T19:16:18.165Z,46.60
2019-05-03T19:18:46.820Z,46.18
2019-05-03T19:21:15.894Z,46.43
2019-05-03T19:23:44.843Z,46.96
2019-05-03T19:26:14.454Z,47.54
2019-05-03T19:28:44.456Z,46.97
2019-05-03T19:31:13.494Z,47.36
2019-05-03T19:33:42.383Z,47.92
2019-05-03T19:36:11.695Z,48.19
2019-05-03T19:38:40.641Z,48.30
2019-05-03T19:41:09.633Z,48.79
2019-05-03T19:43:39.268Z,48.88
2019-05-03T19:46:08.263Z,49.17
2019-05-03T19:48:36.954Z,49.72
2019-05-03T19:51:06.549Z,50.25
2019-05-03T19:53:37.774Z,50.57
2019-05-03T19:56:07.299Z,50.71
2019-05-03T19:58:37.536Z,50.90
2019-05-03T20:01:07.842Z,50.67
2019-05-03T20:03:41.568Z,50.39
2019-05-03T20:06:20.823Z,50.85
2019-05-03T20:08:54.207Z,50.94
2019-05-03T20:11:25.052Z,51.43
2019-05-03T20:13:55.222Z,51.84
2019-05-03T20:16:24.225Z,52.25
2019-05-03T20:18:55.395Z,52.07
2019-05-03T20:21:25.283Z,52.31
2019-05-03T20:23:55.550Z,52.72
2019-05-03T20:26:25.298Z,52.98
2019-05-03T20:28:55.313Z,53.26
2019-05-03T20:31:25.287Z,53.41
2019-05-03T20:33:54.887Z,53.48
2019-05-03T20:36:24.674Z,53.58
2019-05-03T20:38:55.086Z,53.60
2019-05-03T20:41:25.555Z,53.95
2019-05-03T20:44:00.037Z,53.98
2019-05-03T20:46:40.583Z,54.14
2019-05-03T20:49:11.419Z,54.34
2019-05-03T20:53:25.145Z,54.35
2019-05-03T20:55:56.203Z,54.54
2019-05-03T20:58:26.967Z,54.91
2019-05-03T21:00:58.689Z,54.90
2019-05-03T21:03:29.087Z,55.10
2019-05-03T21:06:02.216Z,55.27
2019-05-03T21:08:34.632Z,55.63
2019-05-03T21:11:07.558Z,55.67
2019-05-03T21:13:41.892Z,55.92
2019-05-03T21:16:15.686Z,55.92
2019-05-03T21:19:00.028Z,56.25
2019-05-03T21:21:32.328Z,56.53
2019-05-03T21:24:07.021Z,56.56
2019-05-03T21:26:39.066Z,56.57
2019-05-03T21:29:10.000Z,56.76
2019-05-03T21:31:40.928Z,56.86
2019-05-03T21:34:11.705Z,56.95
2019-05-03T21:36:42.474Z,56.96
2019-05-03T21:39:14.614Z,57.14
2019-05-03T21:41:45.429Z,57.16
2019-05-03T21:44:31.307Z,57.26
2019-05-03T21:47:04.932Z,57.62
2019-05-03T21:49:45.895Z,57.66
2019-05-03T21:52:17.134Z,57.56
2019-05-03T21:54:47.455Z,57.69
2019-05-03T21:57:19.309Z,57.76
2019-05-03T21:59:49.617Z,57.87
2019-05-03T22:02:21.626Z,57.96
2019-05-03T22:04:51.976Z,58.00
2019-05-03T22:07:22.827Z,58.01
2019-05-03T22:09:54.486Z,57.99
2019-05-03T22:12:26.171Z,57.95
2019-05-03T22:14:58.127Z,58.09
2019-05-03T22:17:46.839Z,58.19
2019-05-03T22:20:35.119Z,58.27
2019-05-03T22:23:10.358Z,58.23
2019-05-03T22:25:42.317Z,58.29
2019-05-03T22:28:15.546Z,58.59
2019-05-03T22:30:46.137Z,58.55
2019-05-03T22:33:17.793Z,58.54
2019-05-03T22:35:49.104Z,58.56
2019-05-03T22:38:19.826Z,58.48
2019-05-03T22:40:50.137Z,58.25
2019-05-03T22:43:22.055Z,58.46
2019-05-03T22:45:52.377Z,57.98
2019-05-03T22:48:24.987Z,58.58
2019-05-03T22:50:55.910Z,58.51
2019-05-03T22:53:26.181Z,59.00
2019-05-03T22:55:56.427Z,58.69
2019-05-03T22:58:27.046Z,58.81
2019-05-03T23:00:57.373Z,58.84
2019-05-03T23:03:29.565Z,58.86
2019-05-03T23:06:00.851Z,59.00
2019-05-03T23:08:34.570Z,59.20
2019-05-03T23:11:05.299Z,59.26
2019-05-03T23:13:36.263Z,59.19
2019-05-03T23:16:06.608Z,59.22
2019-05-03T23:18:39.871Z,59.19
2019-05-03T23:21:11.786Z,59.23
2019-05-03T23:23:48.932Z,59.10
2019-05-03T23:26:19.769Z,59.05
2019-05-03T23:28:52.743Z,59.15
2019-05-03T23:31:24.998Z,59.34
2019-05-03T23:33:55.950Z,59.48
2019-05-03T23:36:33.150Z,59.30
2019-05-03T23:39:00.490Z,59.40
2019-05-03T23:41:31.541Z,59.40
2019-05-03T23:44:02.064Z,59.69
2019-05-03T23:46:36.662Z,59.76
2019-05-03T23:49:08.023Z,59.96
2019-05-03T23:51:52.374Z,60.08
2019-05-03T23:54:24.549Z,59.90
2019-05-03T23:56:54.738Z,60.29
2019-05-03T23:59:25.265Z,60.43
